createdAt,value
2023-01-30T00:03:03.512Z,101588.44
2023-01-30T00:08:08.146Z,101579.72
2023-01-30T00:13:11.569Z,101581.50
2023-01-30T00:18:14.733Z,101589.28
2023-01-30T00:23:19.294Z,101594.50
2023-01-30T00:28:22.568Z,101589.28
2023-01-30T00:33:27.360Z,101591.88
2023-01-30T00:38:32.029Z,101587.56
2023-01-30T00:43:52.470Z,101590.97
2023-01-30T00:48:55.603Z,101584.06
2023-01-30T00:54:00.139Z,101579.69
2023-01-30T00:59:03.551Z,101581.38
2023-01-30T01:04:08.886Z,101590.97
2023-01-30T01:09:13.247Z,101597.88
2023-01-30T01:14:16.394Z,101598.72
2023-01-30T01:19:19.773Z,101603.03
2023-01-30T01:24:24.311Z,101607.38
2023-01-30T01:29:27.435Z,101602.97
2023-01-30T01:34:30.557Z,101614.28
2023-01-30T01:39:48.880Z,101615.19
2023-01-30T01:45:17.289Z,101626.63
2023-01-30T01:50:24.406Z,101627.59
2023-01-30T01:55:30.911Z,101639.84
2023-01-30T02:00:34.675Z,101643.38
2023-01-30T02:05:42.828Z,101649.50
2023-01-30T02:10:52.278Z,101653.81
2023-01-30T02:15:57.239Z,101660.84
2023-01-30T02:21:22.822Z,101660.84
2023-01-30T02:26:54.192Z,101666.84
2023-01-30T02:32:09.079Z,101666.81
2023-01-30T02:37:25.203Z,101674.56
2023-01-30T02:42:38.276Z,101673.72
2023-01-30T02:47:49.649Z,101675.50
2023-01-30T02:52:54.253Z,101680.72
2023-01-30T02:57:57.399Z,101680.72
2023-01-30T03:03:29.258Z,101676.22
2023-01-30T03:08:41.813Z,101667.47
2023-01-30T03:13:53.629Z,101674.56
2023-01-30T03:18:58.464Z,101669.41
2023-01-30T03:24:01.613Z,101672.94
2023-01-30T03:29:05.806Z,101677.31
2023-01-30T03:34:10.335Z,101666.00
2023-01-30T03:39:13.942Z,101675.63
2023-01-30T03:44:17.142Z,101672.16
2023-01-30T03:49:21.858Z,101677.41
2023-01-30T03:54:25.162Z,101669.53
2023-01-30T03:59:28.314Z,101675.63
2023-01-30T04:04:33.008Z,101658.19
2023-01-30T04:09:36.176Z,101640.81
2023-01-30T04:14:39.307Z,101625.13
2023-01-30T04:19:44.065Z,101616.38
2023-01-30T04:24:47.201Z,101612.06
2023-01-30T04:29:50.584Z,101612.06
2023-01-30T04:34:55.420Z,101609.44
2023-01-30T04:39:58.739Z,101620.75
2023-01-30T04:45:02.105Z,101605.09
2023-01-30T04:50:07.904Z,101610.28
2023-01-30T04:55:11.436Z,101622.47
2023-01-30T05:00:15.495Z,101641.63
2023-01-30T05:05:20.642Z,101642.50
2023-01-30T05:10:24.048Z,101660.78
2023-01-30T05:15:27.456Z,101648.56
2023-01-30T05:20:32.262Z,101650.34
2023-01-30T05:25:35.603Z,101659.00
2023-01-30T05:30:39.011Z,101659.00
2023-01-30T05:35:49.326Z,101659.00
2023-01-30T05:41:01.387Z,101662.44
2023-01-30T05:46:07.266Z,101665.94
2023-01-30T05:51:19.308Z,101662.44
2023-01-30T05:56:23.164Z,101673.72
2023-01-30T06:01:27.194Z,101663.28
2023-01-30T06:06:31.982Z,101673.69
2023-01-30T06:11:35.593Z,101690.22
2023-01-30T06:16:39.195Z,101699.78
2023-01-30T06:21:44.018Z,101700.63
2023-01-30T06:26:47.198Z,101687.56
2023-01-30T06:31:50.359Z,101691.03
2023-01-30T06:36:54.893Z,101686.69
2023-01-30T06:41:57.992Z,101694.50
2023-01-30T06:47:01.128Z,101710.16
2023-01-30T06:52:06.004Z,101726.72
2023-01-30T06:57:09.116Z,101724.03
2023-01-30T07:02:14.564Z,101735.38
2023-01-30T07:07:19.129Z,101748.34
2023-01-30T07:12:22.342Z,101737.91
2023-01-30T07:17:26.044Z,101721.41
2023-01-30T07:22:30.587Z,101730.00
2023-01-30T07:27:34.108Z,101720.44
2023-01-30T07:32:37.259Z,101728.22
2023-01-30T07:37:41.833Z,101734.31
2023-01-30T07:42:45.169Z,101737.81
2023-01-30T07:47:48.327Z,101753.50
2023-01-30T07:52:53.335Z,101765.63
2023-01-30T07:57:56.708Z,101769.06
2023-01-30T08:02:59.866Z,101774.25
2023-01-30T08:08:04.633Z,101786.47
2023-01-30T08:13:07.786Z,101785.56
2023-01-30T08:18:10.938Z,101798.59
2023-01-30T08:23:15.469Z,101808.16
2023-01-30T08:28:18.637Z,101811.63
2023-01-30T08:33:22.487Z,101813.34
2023-01-30T08:38:27.010Z,101831.63
2023-01-30T08:43:30.183Z,101833.44
2023-01-30T08:48:47.475Z,101840.59
2023-01-30T08:53:53.633Z,101824.16
2023-01-30T08:58:56.812Z,101842.53
2023-01-30T09:03:59.969Z,101845.28
2023-01-30T09:09:04.988Z,101841.88
2023-01-30T09:14:08.206Z,101839.31
2023-01-30T09:19:11.340Z,101837.69
2023-01-30T09:24:15.998Z,101850.75
2023-01-30T09:29:19.219Z,101852.56
2023-01-30T09:34:27.501Z,101847.38
2023-01-30T09:39:32.085Z,101849.97
2023-01-30T09:44:53.427Z,101849.13
2023-01-30T09:50:06.383Z,101836.94
2023-01-30T09:55:19.503Z,101843.03
2023-01-30T10:00:28.332Z,101853.56
2023-01-30T10:05:38.395Z,101866.66
2023-01-30T10:10:55.077Z,101866.63
2023-01-30T10:16:12.376Z,101854.44
2023-01-30T10:21:24.749Z,101857.94
2023-01-30T10:26:31.437Z,101853.53
2023-01-30T10:31:41.637Z,101848.28
2023-01-30T10:36:53.014Z,101861.38
2023-01-30T10:42:12.757Z,101851.78
2023-01-30T10:47:46.350Z,101838.69
2023-01-30T10:52:57.708Z,101846.50
2023-01-30T10:58:15.526Z,101837.72
2023-01-30T11:03:26.056Z,101848.22
2023-01-30T11:08:31.167Z,101849.91
2023-01-30T11:13:35.779Z,101850.78
2023-01-30T11:24:18.475Z,101851.59
2023-01-30T11:29:31.816Z,101854.16
2023-01-30T11:34:35.012Z,101847.13
2023-01-30T11:39:38.146Z,101838.28
2023-01-30T11:44:43.561Z,101839.06
2023-01-30T11:50:10.682Z,101840.91
2023-01-30T11:55:18.646Z,101831.94
2023-01-30T12:00:25.564Z,101823.16
2023-01-30T12:05:34.688Z,101824.84
2023-01-30T12:10:43.145Z,101811.63
2023-01-30T12:15:50.516Z,101809.75
2023-01-30T12:20:59.856Z,101805.50
2023-01-30T12:26:11.539Z,101796.72
2023-01-30T12:31:22.827Z,101797.50
2023-01-30T12:36:35.413Z,101791.22
2023-01-30T12:42:04.368Z,101776.16
2023-01-30T12:47:32.347Z,101773.34
2023-01-30T12:52:57.626Z,101749.13
2023-01-30T12:58:04.434Z,101748.66
2023-01-30T13:03:24.831Z,101749.91
2023-01-30T13:08:51.432Z,101738.16
2023-01-30T13:14:04.342Z,101723.38
2023-01-30T13:19:19.257Z,101713.44
2023-01-30T13:24:31.167Z,101709.75
2023-01-30T13:29:38.920Z,101685.00
2023-01-30T13:34:48.014Z,101679.97
2023-01-30T13:39:54.664Z,101684.97
2023-01-30T13:45:01.186Z,101670.19
2023-01-30T13:50:24.346Z,101668.56
2023-01-30T13:55:36.645Z,101670.88
2023-01-30T14:00:39.907Z,101676.75
2023-01-30T14:06:16.211Z,101669.88
2023-01-30T14:11:48.378Z,101662.16
2023-01-30T14:16:53.871Z,101663.50
2023-01-30T14:22:00.102Z,101657.81
2023-01-30T14:27:24.508Z,101648.59
2023-01-30T14:32:52.579Z,101643.13
2023-01-30T14:38:13.118Z,101632.25
2023-01-30T14:43:55.232Z,101627.53
2023-01-30T14:49:05.298Z,101625.16
2023-01-30T14:54:27.532Z,101627.69
2023-01-30T14:59:37.417Z,101628.69
2023-01-30T15:04:45.259Z,101623.88
2023-01-30T15:09:56.767Z,101634.56
2023-01-30T15:15:13.239Z,101628.16
2023-01-30T15:20:30.317Z,101627.59
2023-01-30T15:25:48.331Z,101623.47
2023-01-30T15:31:02.110Z,101614.91
2023-01-30T15:36:20.407Z,101620.97
2023-01-30T15:41:25.560Z,101615.69
2023-01-30T15:46:38.009Z,101620.97
2023-01-30T15:51:41.323Z,101618.69
2023-01-30T15:56:49.730Z,101608.22
2023-01-30T16:02:01.008Z,101618.56
2023-01-30T16:07:16.207Z,101626.28
2023-01-30T16:12:28.246Z,101632.41
2023-01-30T16:17:33.145Z,101635.50
2023-01-30T16:22:36.360Z,101642.69
2023-01-30T16:27:41.366Z,101650.53
2023-01-30T16:32:44.824Z,101654.31
2023-01-30T16:37:48.070Z,101660.06
2023-01-30T16:43:00.391Z,101671.81
2023-01-30T16:48:25.669Z,101687.38
2023-01-30T16:53:31.132Z,101686.88
2023-01-30T16:58:38.129Z,101696.13
2023-01-30T17:03:44.229Z,101708.56
2023-01-30T17:08:50.799Z,101712.47
2023-01-30T17:14:12.140Z,101719.38
2023-01-30T17:19:16.018Z,101723.97
2023-01-30T17:24:22.007Z,101726.13
2023-01-30T17:29:41.837Z,101737.84
2023-01-30T17:34:45.820Z,101746.88
2023-01-30T17:39:49.249Z,101752.41
2023-01-30T17:44:54.294Z,101756.06
2023-01-30T17:49:57.528Z,101753.69
2023-01-30T17:55:00.702Z,101756.38
2023-01-30T18:00:06.083Z,101763.53
2023-01-30T18:05:10.799Z,101779.50
2023-01-30T18:10:17.700Z,101771.78
2023-01-30T18:15:22.575Z,101783.31
2023-01-30T18:20:25.932Z,101782.53
2023-01-30T18:25:29.163Z,101799.44
2023-01-30T18:30:33.866Z,101810.22
2023-01-30T18:35:39.047Z,101813.97
2023-01-30T18:40:42.050Z,101815.00
2023-01-30T18:45:46.740Z,101820.34
2023-01-30T18:50:50.086Z,101821.38
2023-01-30T18:55:53.325Z,101822.41
2023-01-30T19:00:58.378Z,101830.34
2023-01-30T19:06:03.207Z,101832.09
2023-01-30T19:11:27.327Z,101835.56
2023-01-30T19:16:33.690Z,101831.19
2023-01-30T19:21:37.547Z,101830.34
2023-01-30T19:26:41.437Z,101831.31
2023-01-30T19:31:47.397Z,101842.78
2023-01-30T19:36:50.811Z,101848.09
2023-01-30T19:41:54.101Z,101842.97
2023-01-30T19:46:58.736Z,101840.38
2023-01-30T19:52:02.853Z,101839.50
2023-01-30T19:57:06.097Z,101852.63
2023-01-30T20:02:14.447Z,101843.91
2023-01-30T20:07:17.669Z,101843.91
2023-01-30T20:12:22.107Z,101843.94
2023-01-30T20:17:26.914Z,101843.09
2023-01-30T20:22:30.215Z,101854.44
2023-01-30T20:27:34.182Z,101860.53
2023-01-30T20:32:40.621Z,101866.66
2023-01-30T20:37:43.885Z,101865.78
2023-01-30T20:42:48.929Z,101869.25
2023-01-30T20:47:53.622Z,101872.69
2023-01-30T20:52:56.845Z,101879.63
2023-01-30T20:58:00.147Z,101879.63
2023-01-30T21:03:04.807Z,101883.09
2023-01-30T21:08:08.031Z,101887.44
2023-01-30T21:13:11.260Z,101896.09
2023-01-30T21:18:15.973Z,101901.25
2023-01-30T21:23:19.203Z,101905.59
2023-01-30T21:28:22.620Z,101906.47
2023-01-30T21:33:27.297Z,101911.69
2023-01-30T21:38:48.311Z,101903.91
2023-01-30T21:43:51.552Z,101915.16
2023-01-30T21:48:56.645Z,101909.97
2023-01-30T21:54:02.213Z,101911.72
2023-01-30T21:59:06.707Z,101916.88
2023-01-30T22:04:15.066Z,101914.19
2023-01-30T22:09:18.279Z,101917.72
2023-01-30T22:14:21.667Z,101929.03
2023-01-30T22:19:26.311Z,101929.94
2023-01-30T22:24:29.716Z,101929.06
2023-01-30T22:29:32.959Z,101928.16
2023-01-30T22:34:38.106Z,101936.06
2023-01-30T22:39:41.621Z,101938.63
2023-01-30T22:44:44.878Z,101941.28
2023-01-30T22:49:49.483Z,101942.09
2023-01-30T22:54:52.696Z,101938.53
2023-01-30T22:59:55.929Z,101944.66
2023-01-30T23:05:00.551Z,101945.47
2023-01-30T23:10:03.846Z,101945.47
2023-01-30T23:15:08.280Z,101944.66
2023-01-30T23:20:13.915Z,101942.03
2023-01-30T23:25:17.665Z,101947.19
2023-01-30T23:30:21.316Z,101949.81
2023-01-30T23:35:25.979Z,101945.44
2023-01-30T23:40:29.218Z,101955.94
2023-01-30T23:45:32.519Z,101957.72
2023-01-30T23:50:38.710Z,101966.44
2023-01-30T23:55:51.020Z,101965.53
